createdAt,value
2022-08-03T00:31:06.869Z,100
2022-08-03T00:41:09.431Z,100
2022-08-03T01:01:14.245Z,100
2022-08-03T01:11:16.438Z,100
2022-08-03T01:31:20.865Z,100
2022-08-03T01:41:22.638Z,100
2022-08-03T01:51:24.987Z,100
2022-08-03T02:01:27.148Z,100
2022-08-03T02:11:28.889Z,100
2022-08-03T02:21:56.179Z,100
2022-08-03T02:41:35.394Z,100
2022-08-03T02:51:37.365Z,100
2022-08-03T03:01:39.049Z,100
2022-08-03T03:11:40.975Z,100
2022-08-03T03:21:42.720Z,100
2022-08-03T03:31:44.732Z,100
2022-08-03T03:51:48.916Z,100
2022-08-03T04:01:58.810Z,100
2022-08-03T04:11:53.381Z,100
2022-08-03T04:21:56.912Z,100
2022-08-03T04:31:57.954Z,100
2022-08-03T04:42:02.361Z,100
2022-08-03T04:52:02.055Z,100
2022-08-03T05:02:04.577Z,100
2022-08-03T05:12:06.020Z,100
2022-08-03T05:32:10.818Z,100
2022-08-03T05:42:13.126Z,100
2022-08-03T05:52:15.330Z,100
2022-08-03T06:02:17.367Z,100
2022-08-03T06:12:19.743Z,100
2022-08-03T06:22:21.403Z,100
2022-08-03T06:32:23.190Z,100
2022-08-03T06:42:25.262Z,100
2022-08-03T06:52:44.864Z,100
2022-08-03T07:02:29.553Z,100
2022-08-03T07:12:31.385Z,100
2022-08-03T07:22:33.301Z,100
2022-08-03T07:32:35.707Z,100
2022-08-03T07:42:37.401Z,100
2022-08-03T07:52:39.742Z,100
2022-08-03T08:02:41.658Z,100
2022-08-03T08:12:44.013Z,100
2022-08-03T08:22:45.721Z,100
2022-08-03T08:32:48.368Z,100
2022-08-03T08:42:58.633Z,100
2022-08-03T08:52:52.777Z,100
2022-08-03T09:02:55.316Z,100
2022-08-03T09:12:57.761Z,100
2022-08-03T10:53:20.150Z,100
2022-08-03T11:13:23.993Z,100
2022-08-03T11:24:03.825Z,100
2022-08-03T11:33:28.057Z,100
2022-08-03T11:43:31.189Z,100
2022-08-03T11:53:32.075Z,100
2022-08-03T12:03:34.425Z,100
2022-08-03T12:23:38.196Z,100
2022-08-03T12:33:40.731Z,100
2022-08-03T12:43:42.486Z,100
2022-08-03T12:53:44.162Z,100
2022-08-03T12:56:22.534Z,100
2022-08-03T13:03:55.974Z,100
2022-08-03T13:13:57.860Z,99
2022-08-03T13:24:00.162Z,98
2022-08-03T13:34:02.743Z,97
2022-08-03T13:44:26.396Z,96
2022-08-03T13:54:07.586Z,96
2022-08-03T14:14:12.045Z,94
2022-08-03T14:24:14.638Z,88
2022-08-03T14:34:17.296Z,88
2022-08-03T14:54:21.350Z,90
2022-08-03T15:14:28.387Z,86
2022-08-03T15:24:27.045Z,77
2022-08-03T15:34:29.361Z,71
2022-08-03T15:44:32.047Z,76
2022-08-03T15:54:34.508Z,73
2022-08-03T16:04:36.622Z,71
2022-08-03T16:24:41.518Z,75
2022-08-03T16:34:43.682Z,76
2022-08-03T16:44:45.832Z,78
2022-08-03T16:54:50.850Z,75
2022-08-03T17:04:50.480Z,74
2022-08-03T17:14:52.494Z,75
2022-08-03T17:24:54.382Z,74
2022-08-03T17:34:56.720Z,76
2022-08-03T18:05:02.877Z,75
2022-08-03T18:15:07.646Z,76
2022-08-03T18:25:07.674Z,93
2022-08-03T18:35:13.717Z,100
2022-08-03T18:45:14.858Z,100
2022-08-03T19:05:17.050Z,100
2022-08-03T19:15:21.287Z,100
2022-08-03T19:25:33.409Z,100
2022-08-03T19:35:47.066Z,100
2022-08-03T19:46:04.583Z,100
2022-08-03T19:55:27.635Z,100
2022-08-03T20:05:29.485Z,100
2022-08-03T20:15:32.148Z,100
2022-08-03T20:25:37.860Z,100
2022-08-03T20:35:36.203Z,100
2022-08-03T20:55:47.432Z,100
2022-08-03T21:05:48.141Z,100
2022-08-03T21:16:02.695Z,100
2022-08-03T21:25:46.939Z,100
2022-08-03T21:35:48.821Z,100
2022-08-03T21:55:52.818Z,100
2022-08-03T22:15:56.557Z,100
2022-08-03T22:25:58.555Z,100
2022-08-03T22:36:00.575Z,100
2022-08-03T22:56:04.465Z,100
2022-08-03T23:26:10.727Z,100
2022-08-03T23:46:17.017Z,100
